Time;durP1;ratioP1;P1;durP2;ratioP2;P2;SDS_P1;SDS_P2;PMS_P1;PMS_P2;Temp;Humidity;BMP_temperature;BMP_pressure;BME280_temperature;BME280_humidity;BME280_pressure;Samples;Min_cycle;Max_cycle;Signal;HPM_P1;HPM_P2
2024/03/20 00:01:31;;;;;;;;;;;;;;;8.96;38.54;99560.91;68291;1283;1014622;-70
2024/03/20 00:04:34;;;;;;;;;;;;;;;8.89;38.71;99552.35;68283;1283;1016078;-70
2024/03/20 00:07:36;;;;;;;;;;;;;;;8.81;39.04;99554.08;68282;1283;1015413;-71
2024/03/20 00:10:39;;;;;;;;;;;;;;;8.89;38.98;99556.17;68283;1283;1015475;-70
2024/03/20 00:13:42;;;;;;;;;;;;;;;8.78;38.91;99555.40;68281;1283;1016541;-70
2024/03/20 00:16:45;;;;;;;;;;;;;;;8.54;39.37;99548.52;68280;1283;1015758;-70
2024/03/20 00:19:48;;;;;;;;;;;;;;;8.58;39.65;99548.21;68293;1283;1016129;-71
2024/03/20 00:22:50;;;;;;;;;;;;;;;8.41;39.65;99547.52;68288;1283;1016156;-70
2024/03/20 00:25:53;;;;;;;;;;;;;;;8.44;39.86;99544.42;68292;1283;1015702;-71
2024/03/20 00:28:55;;;;;;;;;;;;;;;8.50;39.47;99539.31;68281;1283;1015489;-70
2024/03/20 00:31:58;;;;;;;;;;;;;;;8.48;39.24;99543.03;68284;1283;1015653;-71
2024/03/20 00:35:00;;;;;;;;;;;;;;;8.58;39.61;99540.02;68291;1283;1015970;-71
2024/03/20 00:38:03;;;;;;;;;;;;;;;8.53;39.66;99540.59;68284;1283;1016059;-70
2024/03/20 00:41:05;;;;;;;;;;;;;;;8.50;39.67;99540.32;68286;1283;1015558;-70
2024/03/20 00:44:08;;;;;;;;;;;;;;;8.57;39.56;99537.95;68294;1283;1015579;-62
2024/03/20 00:47:10;;;;;;;;;;;;;;;8.59;39.32;99535.10;68286;1283;1015785;-70
2024/03/20 00:50:13;;;;;;;;;;;;;;;8.51;39.08;99531.60;68285;1283;1015698;-70
2024/03/20 00:53:15;;;;;;;;;;;;;;;8.34;39.21;99528.44;68289;1283;1015008;-70
2024/03/20 00:56:18;;;;;;;;;;;;;;;8.32;39.43;99532.34;68292;1283;1015723;-70
2024/03/20 00:59:22;;;;;;;;;;;;;;;8.27;39.35;99532.19;68293;1283;1015277;-67
2024/03/20 01:02:24;;;;;;;;;;;;;;;8.08;39.19;99529.64;68290;1283;1016270;-70
2024/03/20 01:05:27;;;;;;;;;;;;;;;7.81;39.54;99531.21;68270;1283;1016109;-69
2024/03/20 01:08:29;;;;;;;;;;;;;;;7.68;39.74;99536.23;68289;1283;1016033;-71
2024/03/20 01:11:32;;;;;;;;;;;;;;;7.33;40.52;99536.63;68288;1283;1015709;-70
2024/03/20 01:14:34;;;;;;;;;;;;;;;7.78;39.63;99530.77;68300;1283;1016192;-70
2024/03/20 01:17:37;;;;;;;;;;;;;;;7.89;39.59;99529.16;68276;1283;1015841;-70
2024/03/20 01:20:39;;;;;;;;;;;;;;;7.86;39.66;99525.28;68281;1283;1015323;-70
2024/03/20 01:23:42;;;;;;;;;;;;;;;7.74;39.55;99523.45;68294;1283;1015653;-70
2024/03/20 01:26:44;;;;;;;;;;;;;;;7.52;39.87;99523.59;68282;1283;1015625;-70
2024/03/20 01:29:46;;;;;;;;;;;;;;;7.52;40.15;99523.77;68276;1283;1015535;-70
2024/03/20 01:32:49;;;;;;;;;;;;;;;7.62;40.09;99522.68;68304;1283;1014694;-70
2024/03/20 01:35:51;;;;;;;;;;;;;;;7.58;39.92;99523.88;68282;1283;1015517;-70
2024/03/20 01:38:54;;;;;;;;;;;;;;;7.45;40.07;99521.24;68290;1283;1015710;-70
2024/03/20 01:41:56;;;;;;;;;;;;;;;7.33;40.41;99518.88;68278;1283;1014883;-70
2024/03/20 01:44:59;;;;;;;;;;;;;;;7.41;40.17;99521.02;68280;1283;1014633;-70
2024/03/20 01:48:01;;;;;;;;;;;;;;;7.51;40.06;99519.45;68286;1283;1015941;-70
2024/03/20 01:51:04;;;;;;;;;;;;;;;7.51;40.05;99521.04;68297;1283;1015950;-62
2024/03/20 01:54:06;;;;;;;;;;;;;;;7.67;40.12;99522.19;68284;1283;1016380;-70
2024/03/20 01:57:10;;;;;;;;;;;;;;;7.68;40.18;99525.61;68279;1283;1016182;-67
2024/03/20 02:00:13;;;;;;;;;;;;;;;7.80;39.86;99523.39;68278;1283;1016213;-70
2024/03/20 02:03:16;;;;;;;;;;;;;;;7.75;39.90;99524.13;68295;1283;1015760;-70
2024/03/20 02:06:18;;;;;;;;;;;;;;;7.65;40.04;99527.13;68288;1283;1016004;-70
2024/03/20 02:09:21;;;;;;;;;;;;;;;7.67;39.93;99522.17;68296;1283;1014264;-69
2024/03/20 02:12:23;;;;;;;;;;;;;;;7.49;40.02;99521.27;68293;1283;1015889;-70
2024/03/20 02:15:25;;;;;;;;;;;;;;;7.45;39.96;99519.67;68307;1283;1014757;-66
2024/03/20 02:18:28;;;;;;;;;;;;;;;7.44;40.00;99519.02;68286;1283;1015514;-63
2024/03/20 02:21:31;;;;;;;;;;;;;;;7.34;39.84;99519.90;68290;1283;1015751;-70
2024/03/20 02:24:33;;;;;;;;;;;;;;;7.21;39.86;99521.06;68291;1283;1016040;-70
2024/03/20 02:27:36;;;;;;;;;;;;;;;7.43;39.64;99526.36;68277;1283;1014593;-62
2024/03/20 02:30:39;;;;;;;;;;;;;;;7.57;39.79;99522.69;68291;1283;1015684;-70
2024/03/20 02:33:42;;;;;;;;;;;;;;;7.29;39.64;99526.35;68289;1283;1015980;-70
2024/03/20 02:36:46;;;;;;;;;;;;;;;7.04;39.67;99529.64;68300;1283;1015818;-70
2024/03/20 02:39:48;;;;;;;;;;;;;;;6.96;39.79;99521.75;68283;1283;1015499;-70
2024/03/20 02:42:51;;;;;;;;;;;;;;;6.62;40.48;99519.11;68285;1283;1015819;-70
2024/03/20 02:45:53;;;;;;;;;;;;;;;6.46;40.85;99527.09;68297;1283;1015893;-70
2024/03/20 02:48:56;;;;;;;;;;;;;;;6.87;40.21;99529.90;68304;1283;1015680;-64
2024/03/20 02:51:59;;;;;;;;;;;;;;;7.05;40.03;99530.85;68291;1283;1015699;-70
2024/03/20 02:55:01;;;;;;;;;;;;;;;7.06;39.76;99531.48;68289;1283;1016073;-70
2024/03/20 02:58:03;;;;;;;;;;;;;;;7.03;39.90;99527.44;68278;1283;1015774;-70
2024/03/20 03:01:06;;;;;;;;;;;;;;;7.13;39.74;99522.23;68291;1283;1015459;-62
2024/03/20 03:04:08;;;;;;;;;;;;;;;6.91;39.63;99522.98;68287;1283;1015328;-70
2024/03/20 03:07:11;;;;;;;;;;;;;;;6.96;39.46;99518.64;68274;1283;1016150;-69
2024/03/20 03:10:14;;;;;;;;;;;;;;;7.07;39.56;99519.29;68282;1283;1016048;-69
2024/03/20 03:13:17;;;;;;;;;;;;;;;6.89;39.91;99517.67;68286;1283;1016112;-70
2024/03/20 03:16:19;;;;;;;;;;;;;;;6.65;40.09;99518.10;68295;1283;1016042;-64
2024/03/20 03:19:21;;;;;;;;;;;;;;;6.30;40.55;99514.94;68305;1283;1015281;-62
2024/03/20 03:22:24;;;;;;;;;;;;;;;6.07;41.13;99512.73;68287;1283;1016070;-62
2024/03/20 03:25:26;;;;;;;;;;;;;;;6.58;40.56;99512.45;68296;1283;1016120;-63
2024/03/20 03:28:29;;;;;;;;;;;;;;;6.99;39.99;99515.23;68281;1283;1016451;-63
2024/03/20 03:31:32;;;;;;;;;;;;;;;7.02;39.66;99513.55;68287;1283;1015738;-70
2024/03/20 03:34:34;;;;;;;;;;;;;;;7.03;39.62;99516.15;68299;1283;1015496;-70
2024/03/20 03:37:37;;;;;;;;;;;;;;;6.99;39.56;99514.69;68294;1283;1015976;-70
2024/03/20 03:40:40;;;;;;;;;;;;;;;6.83;39.66;99513.35;68277;1283;1015763;-66
2024/03/20 03:43:42;;;;;;;;;;;;;;;7.03;39.79;99516.30;68286;1283;1014693;-70
2024/03/20 03:46:46;;;;;;;;;;;;;;;7.03;39.41;99514.56;68296;1283;1016363;-71
2024/03/20 03:49:48;;;;;;;;;;;;;;;7.04;39.29;99514.02;68283;1283;1015515;-70
2024/03/20 03:52:51;;;;;;;;;;;;;;;7.02;39.65;99513.73;68300;1283;1015777;-70
2024/03/20 03:55:53;;;;;;;;;;;;;;;6.95;39.81;99512.03;68292;1283;1014722;-69
2024/03/20 03:58:55;;;;;;;;;;;;;;;6.90;39.74;99511.55;68297;1283;1015290;-70
2024/03/20 04:01:58;;;;;;;;;;;;;;;6.96;39.71;99509.78;68300;1283;1015683;-69
2024/03/20 04:05:00;;;;;;;;;;;;;;;6.91;39.66;99511.31;68299;1283;1015312;-70
2024/03/20 04:08:03;;;;;;;;;;;;;;;6.87;39.89;99504.49;68289;1283;1014840;-68
2024/03/20 04:11:06;;;;;;;;;;;;;;;7.17;39.56;99499.97;68277;1283;1015336;-70
2024/03/20 04:14:10;;;;;;;;;;;;;;;7.11;39.47;99489.76;68292;1283;1015750;-70
2024/03/20 04:17:12;;;;;;;;;;;;;;;7.15;39.40;99486.48;68295;1283;1015939;-70
2024/03/20 04:20:14;;;;;;;;;;;;;;;6.80;39.78;99491.72;68297;1283;1015326;-69
2024/03/20 04:23:17;;;;;;;;;;;;;;;6.97;39.10;99495.48;68295;1283;1015054;-63
2024/03/20 04:26:19;;;;;;;;;;;;;;;6.26;40.04;99495.45;68292;1283;1015770;-70
2024/03/20 04:29:22;;;;;;;;;;;;;;;6.29;40.01;99492.56;68284;1283;1015811;-63
2024/03/20 04:32:25;;;;;;;;;;;;;;;6.46;39.61;99491.67;68293;1283;1016407;-70
2024/03/20 04:35:27;;;;;;;;;;;;;;;6.39;39.68;99494.33;68296;1283;1016007;-70
2024/03/20 04:38:30;;;;;;;;;;;;;;;5.93;40.45;99492.48;68287;1283;1014636;-70
2024/03/20 04:41:33;;;;;;;;;;;;;;;6.28;40.24;99502.30;68290;1283;1015222;-71
2024/03/20 04:44:35;;;;;;;;;;;;;;;6.42;40.09;99505.01;68296;1283;1015431;-71
2024/03/20 04:47:38;;;;;;;;;;;;;;;6.50;40.20;99496.21;68294;1283;1015924;-70
2024/03/20 04:50:40;;;;;;;;;;;;;;;6.31;40.55;99498.05;68287;1283;1015899;-70
2024/03/20 04:53:43;;;;;;;;;;;;;;;6.34;40.41;99502.65;68302;1283;1016229;-70
2024/03/20 04:56:45;;;;;;;;;;;;;;;6.25;40.54;99499.30;68285;1283;1015331;-70
2024/03/20 04:59:48;;;;;;;;;;;;;;;6.33;40.51;99495.20;68309;1283;1015131;-63
2024/03/20 05:02:50;;;;;;;;;;;;;;;6.45;40.13;99489.08;68292;1283;1015452;-71
2024/03/20 05:05:53;;;;;;;;;;;;;;;6.51;39.91;99495.13;68297;1283;1015681;-70
2024/03/20 05:08:55;;;;;;;;;;;;;;;6.41;39.93;99500.16;68281;1283;1015596;-70
2024/03/20 05:11:58;;;;;;;;;;;;;;;6.42;40.18;99503.80;68288;1283;1016664;-70
2024/03/20 05:15:00;;;;;;;;;;;;;;;6.31;40.30;99503.42;68295;1283;1016444;-70
2024/03/20 05:18:03;;;;;;;;;;;;;;;6.48;40.31;99509.48;68288;1283;1015772;-70
2024/03/20 05:21:05;;;;;;;;;;;;;;;6.68;39.98;99510.03;68294;1283;1015805;-63
2024/03/20 05:24:08;;;;;;;;;;;;;;;6.83;40.00;99513.89;68296;1283;1015662;-69
2024/03/20 05:27:10;;;;;;;;;;;;;;;6.99;40.00;99518.88;65720;1283;5372849;-70
2024/03/20 05:30:13;;;;;;;;;;;;;;;6.92;40.13;99520.16;68288;1283;1015628;-70
2024/03/20 05:33:16;;;;;;;;;;;;;;;6.98;40.25;99520.13;68279;1283;1015615;-69
2024/03/20 05:36:19;;;;;;;;;;;;;;;6.93;40.58;99518.91;68300;1283;1015715;-67
2024/03/20 05:39:23;;;;;;;;;;;;;;;7.07;40.78;99523.09;68298;1283;1015730;-63
2024/03/20 05:42:26;;;;;;;;;;;;;;;7.54;40.29;99522.62;68285;1283;1015936;-69
2024/03/20 05:45:28;;;;;;;;;;;;;;;7.98;39.92;99523.57;68306;1283;1015677;-69
2024/03/20 05:48:30;;;;;;;;;;;;;;;8.20;40.43;99515.38;68286;1283;1014782;-69
2024/03/20 05:51:33;;;;;;;;;;;;;;;8.53;40.12;99512.67;68297;1283;1015320;-69
2024/03/20 05:54:35;;;;;;;;;;;;;;;8.77;39.71;99515.86;68284;1283;1015772;-69
2024/03/20 05:57:38;;;;;;;;;;;;;;;8.53;40.07;99517.06;68297;1283;1016060;-69
2024/03/20 06:00:40;;;;;;;;;;;;;;;8.71;40.06;99519.62;68296;1283;1015995;-69
2024/03/20 06:03:43;;;;;;;;;;;;;;;9.03;40.00;99523.52;68297;1283;1014908;-69
2024/03/20 06:06:46;;;;;;;;;;;;;;;9.37;39.91;99523.23;68295;1283;1015237;-69
2024/03/20 06:09:49;;;;;;;;;;;;;;;9.51;39.87;99526.08;68303;1283;1015771;-69
2024/03/20 06:12:51;;;;;;;;;;;;;;;9.53;40.20;99531.20;68293;1283;1015436;-69
2024/03/20 06:15:53;;;;;;;;;;;;;;;9.81;40.17;99526.80;68288;1283;1016111;-69
2024/03/20 06:18:56;;;;;;;;;;;;;;;10.41;40.04;99531.48;68286;1283;1015488;-69
2024/03/20 06:21:58;;;;;;;;;;;;;;;10.90;39.80;99534.83;68286;1283;1016035;-69
2024/03/20 06:25:06;;;;;;;;;;;;;;;11.13;40.01;99539.75;68288;1283;1015990;-69
2024/03/20 06:28:09;;;;;;;;;;;;;;;11.37;39.78;99547.11;68285;1283;1015382;-63
2024/03/20 06:31:11;;;;;;;;;;;;;;;11.73;39.77;99553.09;68287;1283;1015209;-69
2024/03/20 06:34:14;;;;;;;;;;;;;;;12.13;39.27;99548.28;68294;1283;1015358;-69
2024/03/20 06:37:17;;;;;;;;;;;;;;;12.37;39.35;99550.82;68282;1283;1016047;-69
2024/03/20 06:40:19;;;;;;;;;;;;;;;12.77;39.05;99552.92;68291;1283;1015405;-64
2024/03/20 06:43:22;;;;;;;;;;;;;;;12.94;39.23;99552.42;68302;1283;1015952;-68
2024/03/20 06:46:25;;;;;;;;;;;;;;;13.04;39.54;99553.30;68311;1283;1016328;-69
2024/03/20 06:49:28;;;;;;;;;;;;;;;13.23;39.24;99555.65;68290;1283;1015527;-69
2024/03/20 06:52:38;;;;;;;;;;;;;;;13.39;39.33;99547.52;68284;1283;1015651;-69
2024/03/20 06:55:48;;;;;;;;;;;;;;;13.76;39.06;99546.10;68301;1283;1015324;-69
2024/03/20 06:58:50;;;;;;;;;;;;;;;13.98;38.90;99550.05;68284;1283;1015887;-70
2024/03/20 07:01:53;;;;;;;;;;;;;;;13.97;39.13;99542.88;68293;1283;1015148;-69
2024/03/20 07:04:55;;;;;;;;;;;;;;;14.18;39.27;99546.94;68288;1283;1015149;-69
2024/03/20 07:07:58;;;;;;;;;;;;;;;14.21;39.10;99546.95;68302;1283;1015407;-69
2024/03/20 07:11:04;;;;;;;;;;;;;;;14.02;39.56;99548.36;68276;1283;1016205;-69
2024/03/20 07:14:06;;;;;;;;;;;;;;;13.92;39.79;99551.11;68289;1283;1015352;-69
2024/03/20 07:17:09;;;;;;;;;;;;;;;13.98;40.24;99551.25;68290;1283;1015929;-69
2024/03/20 07:20:11;;;;;;;;;;;;;;;14.36;39.74;99554.62;68293;1283;1014644;-69
2024/03/20 07:23:14;;;;;;;;;;;;;;;14.59;39.48;99554.84;68283;1283;1015555;-69
2024/03/20 07:26:16;;;;;;;;;;;;;;;15.55;38.47;99556.69;68288;1283;1015433;-69
2024/03/20 07:29:18;;;;;;;;;;;;;;;15.98;37.49;99554.75;68284;1283;1016238;-69
2024/03/20 07:32:21;;;;;;;;;;;;;;;16.23;37.48;99556.31;68296;1283;1015296;-64
2024/03/20 07:35:24;;;;;;;;;;;;;;;16.44;36.97;99553.89;68284;1283;1015551;-68
2024/03/20 07:38:27;;;;;;;;;;;;;;;16.29;36.72;99553.96;68281;1283;1015486;-68
2024/03/20 07:41:29;;;;;;;;;;;;;;;16.39;36.87;99555.00;68294;1283;1015279;-70
2024/03/20 07:44:32;;;;;;;;;;;;;;;16.68;36.60;99551.09;68302;1283;1015715;-69
2024/03/20 07:47:34;;;;;;;;;;;;;;;16.65;36.92;99547.58;68299;1283;1015597;-69
2024/03/20 07:50:37;;;;;;;;;;;;;;;16.85;36.76;99542.75;68293;1283;1015403;-69
2024/03/20 07:53:39;;;;;;;;;;;;;;;17.04;36.32;99546.64;68289;1283;1016204;-69
2024/03/20 07:56:42;;;;;;;;;;;;;;;17.44;36.45;99540.34;68288;1283;1015645;-69
2024/03/20 07:59:44;;;;;;;;;;;;;;;17.83;35.79;99540.89;68288;1283;1015636;-69
2024/03/20 08:02:47;;;;;;;;;;;;;;;17.85;35.44;99543.38;68307;1283;1015887;-70
2024/03/20 08:05:49;;;;;;;;;;;;;;;17.83;36.00;99542.98;68292;1283;1015740;-69
2024/03/20 08:08:52;;;;;;;;;;;;;;;17.84;35.09;99542.23;68276;1283;1015510;-69
2024/03/20 08:11:55;;;;;;;;;;;;;;;17.81;35.01;99543.28;68297;1283;1015723;-69
2024/03/20 08:14:57;;;;;;;;;;;;;;;18.03;34.71;99543.73;68289;1283;1015423;-69
2024/03/20 08:18:00;;;;;;;;;;;;;;;18.06;34.78;99538.70;68277;1283;1015449;-69
2024/03/20 08:21:03;;;;;;;;;;;;;;;18.23;34.61;99530.43;68284;1283;1015217;-69
2024/03/20 08:24:05;;;;;;;;;;;;;;;18.19;34.57;99525.80;68280;1283;1015538;-69
2024/03/20 08:27:09;;;;;;;;;;;;;;;18.56;34.40;99527.88;68286;1283;1016284;-68
2024/03/20 08:30:13;;;;;;;;;;;;;;;18.81;33.82;99525.09;68289;1283;1015769;-69
2024/03/20 08:33:16;;;;;;;;;;;;;;;19.10;34.14;99513.48;68282;1283;1015600;-69
2024/03/20 08:36:19;;;;;;;;;;;;;;;19.49;34.01;99513.36;68284;1283;1014864;-69
2024/03/20 08:39:22;;;;;;;;;;;;;;;19.87;33.69;99509.52;68286;1283;1015490;-63
2024/03/20 08:42:24;;;;;;;;;;;;;;;19.98;32.56;99503.42;68299;1283;1016092;-69
2024/03/20 08:45:27;;;;;;;;;;;;;;;19.71;32.87;99507.84;68278;1283;1015292;-69
2024/03/20 08:48:29;;;;;;;;;;;;;;;19.84;33.09;99508.36;68288;1283;1015804;-69
2024/03/20 08:51:32;;;;;;;;;;;;;;;20.15;32.81;99514.23;68294;1283;1015988;-63
2024/03/20 08:54:34;;;;;;;;;;;;;;;20.42;32.92;99513.26;68274;1283;1015480;-69
2024/03/20 08:57:37;;;;;;;;;;;;;;;20.61;32.17;99512.74;68282;1283;1016075;-69
2024/03/20 09:00:39;;;;;;;;;;;;;;;20.44;31.91;99511.86;68300;1283;1016154;-68
2024/03/20 09:03:42;;;;;;;;;;;;;;;20.63;32.26;99505.32;68279;1283;1016425;-69
2024/03/20 09:06:44;;;;;;;;;;;;;;;20.70;30.98;99510.33;68285;1283;1015804;-69
2024/03/20 09:09:47;;;;;;;;;;;;;;;20.30;31.42;99516.96;68294;1283;1015352;-69
2024/03/20 09:12:49;;;;;;;;;;;;;;;20.51;31.94;99516.90;68291;1283;1015836;-69
2024/03/20 09:15:52;;;;;;;;;;;;;;;20.90;31.92;99512.09;68284;1283;1015920;-69
2024/03/20 09:18:54;;;;;;;;;;;;;;;21.03;31.15;99513.50;68278;1283;1015323;-68
2024/03/20 09:21:58;;;;;;;;;;;;;;;21.04;31.06;99514.02;68286;1283;1015381;-69
2024/03/20 09:25:01;;;;;;;;;;;;;;;20.62;30.57;99511.23;68283;1283;1015479;-69
2024/03/20 09:28:03;;;;;;;;;;;;;;;20.66;30.52;99511.59;68276;1283;1015677;-65
2024/03/20 09:31:06;;;;;;;;;;;;;;;20.63;29.91;99513.86;68282;1283;1015460;-69
2024/03/20 09:34:08;;;;;;;;;;;;;;;20.17;29.93;99512.52;68298;1283;1015727;-69
2024/03/20 09:37:11;;;;;;;;;;;;;;;19.92;30.33;99509.98;68284;1283;1015994;-69
2024/03/20 09:40:14;;;;;;;;;;;;;;;20.17;30.42;99505.56;68285;1283;1016022;-69
2024/03/20 09:43:18;;;;;;;;;;;;;;;20.53;30.50;99505.10;68298;1283;1015351;-69
2024/03/20 09:46:20;;;;;;;;;;;;;;;20.34;29.30;99502.80;68281;1283;1015276;-70
2024/03/20 09:49:22;;;;;;;;;;;;;;;20.26;29.56;99508.10;68284;1283;1015187;-68
2024/03/20 09:52:25;;;;;;;;;;;;;;;20.02;28.29;99507.06;68306;1283;1015264;-68
2024/03/20 09:55:28;;;;;;;;;;;;;;;19.65;27.85;99509.05;68296;1283;1015975;-69
2024/03/20 09:58:30;;;;;;;;;;;;;;;19.73;28.53;99502.91;68284;1283;1015978;-69
2024/03/20 10:01:32;;;;;;;;;;;;;;;19.98;29.66;99499.46;68292;1283;1015390;-69
2024/03/20 10:04:35;;;;;;;;;;;;;;;20.36;28.52;99493.88;68290;1283;1015884;-64
2024/03/20 10:07:37;;;;;;;;;;;;;;;20.31;28.75;99483.02;68297;1283;1016062;-69
2024/03/20 10:10:40;;;;;;;;;;;;;;;20.96;29.57;99481.47;68289;1283;1015912;-69
2024/03/20 10:13:42;;;;;;;;;;;;;;;21.45;28.98;99475.58;68290;1283;1015580;-64
2024/03/20 10:16:45;;;;;;;;;;;;;;;21.43;27.80;99477.04;68288;1283;1016085;-69
2024/03/20 10:19:49;;;;;;;;;;;;;;;21.45;28.31;99472.62;68277;1283;1015793;-69
2024/03/20 10:22:52;;;;;;;;;;;;;;;21.93;27.88;99469.45;68289;1283;1015826;-69
2024/03/20 10:25:54;;;;;;;;;;;;;;;21.77;27.18;99469.13;68291;1283;1016167;-64
2024/03/20 10:28:57;;;;;;;;;;;;;;;21.43;27.21;99468.34;68289;1283;1015786;-69
2024/03/20 10:31:59;;;;;;;;;;;;;;;21.65;27.33;99459.98;68289;1283;1015325;-69
2024/03/20 10:35:02;;;;;;;;;;;;;;;21.91;27.33;99454.61;68287;1283;1015720;-69
2024/03/20 10:38:05;;;;;;;;;;;;;;;22.04;26.34;99449.09;68277;1283;1015861;-69
2024/03/20 10:41:07;;;;;;;;;;;;;;;22.32;26.86;99448.99;68270;1283;1015815;-63
2024/03/20 10:44:09;;;;;;;;;;;;;;;22.63;26.66;99445.75;68278;1283;1015481;-70
2024/03/20 10:47:12;;;;;;;;;;;;;;;22.86;26.99;99442.73;68285;1283;1015898;-68
2024/03/20 10:50:15;;;;;;;;;;;;;;;23.25;26.31;99437.96;68284;1283;1015428;-69
2024/03/20 10:53:18;;;;;;;;;;;;;;;23.27;25.61;99436.20;68280;1283;1016135;-69
2024/03/20 10:56:20;;;;;;;;;;;;;;;23.12;24.96;99432.51;68288;1283;1016244;-69
2024/03/20 10:59:23;;;;;;;;;;;;;;;22.86;25.94;99430.70;68292;1283;1015571;-68
2024/03/20 11:02:25;;;;;;;;;;;;;;;22.95;25.89;99428.92;68287;1283;1015314;-69
2024/03/20 11:05:28;;;;;;;;;;;;;;;23.07;25.77;99427.54;68289;1283;1015424;-69
2024/03/20 11:08:31;;;;;;;;;;;;;;;23.25;25.68;99422.81;68289;1283;1015970;-69
2024/03/20 11:11:33;;;;;;;;;;;;;;;23.22;25.78;99425.13;68283;1283;1014814;-68
2024/03/20 11:14:37;;;;;;;;;;;;;;;23.36;25.36;99420.27;68295;1283;1016048;-69
2024/03/20 11:17:39;;;;;;;;;;;;;;;23.00;25.28;99420.40;68286;1283;1016888;-63
2024/03/20 11:20:43;;;;;;;;;;;;;;;22.81;25.63;99422.33;68284;1283;1015886;-69
2024/03/20 11:23:47;;;;;;;;;;;;;;;23.05;25.44;99413.95;68276;1283;1015364;-68
2024/03/20 11:26:49;;;;;;;;;;;;;;;22.77;25.72;99417.59;68300;1283;1016237;-69
2024/03/20 11:29:51;;;;;;;;;;;;;;;23.24;26.09;99407.95;68282;1283;1015987;-69
2024/03/20 11:32:54;;;;;;;;;;;;;;;23.70;25.27;99408.95;68290;1283;1015304;-69
2024/03/20 11:35:57;;;;;;;;;;;;;;;23.84;25.26;99403.63;68291;1283;1016118;-69
2024/03/20 11:38:59;;;;;;;;;;;;;;;23.96;25.62;99397.65;68287;1283;1016074;-69
2024/03/20 11:42:02;;;;;;;;;;;;;;;24.25;25.50;99396.13;68288;1283;1015956;-69
2024/03/20 11:45:04;;;;;;;;;;;;;;;24.13;25.20;99397.77;68300;1283;1015950;-63
2024/03/20 11:48:06;;;;;;;;;;;;;;;24.06;25.20;99391.77;68294;1283;1016007;-69
2024/03/20 11:51:10;;;;;;;;;;;;;;;24.13;25.44;99386.52;68288;1283;1015527;-69
2024/03/20 11:54:12;;;;;;;;;;;;;;;24.35;24.84;99384.70;68292;1283;1015718;-69
2024/03/20 11:57:15;;;;;;;;;;;;;;;24.36;24.66;99383.15;68278;1283;1016416;-69
2024/03/20 12:00:17;;;;;;;;;;;;;;;24.62;24.60;99382.42;68282;1283;1016370;-68
2024/03/20 12:03:20;;;;;;;;;;;;;;;24.98;23.94;99379.69;68281;1283;1016131;-63
2024/03/20 12:06:25;;;;;;;;;;;;;;;24.74;24.18;99384.02;68280;1283;1015893;-69
2024/03/20 12:09:28;;;;;;;;;;;;;;;24.82;23.96;99381.65;68288;1283;1016709;-67
2024/03/20 12:12:30;;;;;;;;;;;;;;;24.55;24.29;99381.22;68290;1283;1016431;-69
2024/03/20 12:15:33;;;;;;;;;;;;;;;24.86;24.46;99378.36;68281;1283;1016069;-68
2024/03/20 12:18:35;;;;;;;;;;;;;;;23.91;23.78;99376.38;68284;1283;1016042;-69
2024/03/20 12:21:38;;;;;;;;;;;;;;;23.39;24.32;99382.28;68272;1283;1015828;-63
2024/03/20 12:24:40;;;;;;;;;;;;;;;23.66;25.09;99378.20;68289;1283;1015648;-68
2024/03/20 12:27:43;;;;;;;;;;;;;;;24.15;25.52;99372.77;68282;1283;1016141;-69
2024/03/20 12:30:45;;;;;;;;;;;;;;;24.74;25.08;99370.58;68292;1283;1015381;-63
2024/03/20 12:33:49;;;;;;;;;;;;;;;25.17;24.35;99359.98;68271;1283;1015453;-68
2024/03/20 12:36:52;;;;;;;;;;;;;;;25.53;24.14;99357.67;68296;1283;1015656;-69
2024/03/20 12:39:54;;;;;;;;;;;;;;;25.61;24.00;99360.77;68288;1283;1015224;-69
2024/03/20 12:42:57;;;;;;;;;;;;;;;25.47;24.38;99355.02;68288;1283;1016111;-69
2024/03/20 12:45:59;;;;;;;;;;;;;;;25.20;23.34;99359.10;68284;1283;1016507;-63
2024/03/20 12:49:03;;;;;;;;;;;;;;;25.27;24.31;99351.77;68276;1283;1015526;-69
2024/03/20 12:52:05;;;;;;;;;;;;;;;25.62;24.38;99349.06;68284;1283;1015365;-69
2024/03/20 12:55:08;;;;;;;;;;;;;;;25.21;23.57;99350.24;68287;1283;1015320;-68
2024/03/20 12:58:11;;;;;;;;;;;;;;;25.23;24.16;99346.88;68273;1283;1015934;-64
2024/03/20 13:01:14;;;;;;;;;;;;;;;25.45;24.39;99348.63;68283;1283;1014916;-64
2024/03/20 13:04:17;;;;;;;;;;;;;;;25.56;23.13;99350.81;68297;1283;1015142;-69
2024/03/20 13:07:20;;;;;;;;;;;;;;;25.15;23.29;99345.73;68282;1283;1015448;-69
2024/03/20 13:10:22;;;;;;;;;;;;;;;24.93;23.86;99341.78;68280;1283;1016068;-65
2024/03/20 13:13:26;;;;;;;;;;;;;;;25.24;23.50;99338.11;68282;1283;1014761;-64
2024/03/20 13:16:28;;;;;;;;;;;;;;;25.33;22.97;99331.73;68284;1283;1015773;-69
2024/03/20 13:19:32;;;;;;;;;;;;;;;25.51;23.82;99333.98;68294;1283;1016013;-63
2024/03/20 13:22:34;;;;;;;;;;;;;;;26.13;23.12;99327.39;68279;1283;1015826;-69
2024/03/20 13:25:37;;;;;;;;;;;;;;;25.61;22.65;99328.65;68282;1283;1015482;-66
2024/03/20 13:28:40;;;;;;;;;;;;;;;25.68;22.60;99318.76;68288;1283;1015663;-66
2024/03/20 13:31:43;;;;;;;;;;;;;;;25.78;23.53;99314.52;68281;1283;1016247;-69
2024/03/20 13:34:45;;;;;;;;;;;;;;;26.25;23.37;99315.55;68293;1283;1014408;-68
2024/03/20 13:37:50;;;;;;;;;;;;;;;26.23;22.93;99311.59;68293;1283;1015585;-69
2024/03/20 13:41:11;;;;;;;;;;;;;;;25.87;22.63;99305.69;68281;1283;1015828;-63
2024/03/20 13:44:16;;;;;;;;;;;;;;;24.86;22.70;99300.77;68290;1283;1016015;-69
2024/03/20 13:47:18;;;;;;;;;;;;;;;24.52;23.89;99300.46;68276;1283;1016221;-69
2024/03/20 13:50:20;;;;;;;;;;;;;;;24.85;24.02;99294.23;68282;1283;1016220;-69
2024/03/20 13:53:23;;;;;;;;;;;;;;;24.66;23.30;99298.18;68272;1283;1015620;-69
2024/03/20 13:56:26;;;;;;;;;;;;;;;24.45;23.37;99295.55;68283;1283;1015941;-68
2024/03/20 13:59:28;;;;;;;;;;;;;;;24.41;23.72;99292.71;68276;1283;1015588;-68
2024/03/20 14:02:30;;;;;;;;;;;;;;;24.55;23.52;99290.16;68284;1283;1014363;-69
2024/03/20 14:05:33;;;;;;;;;;;;;;;24.86;23.45;99290.60;68272;1283;1015979;-69
2024/03/20 14:08:36;;;;;;;;;;;;;;;24.71;22.88;99290.59;68275;1283;1015641;-69
2024/03/20 14:11:39;;;;;;;;;;;;;;;24.94;23.39;99286.81;68281;1283;1015324;-68
2024/03/20 14:14:42;;;;;;;;;;;;;;;25.42;22.91;99287.46;68271;1283;1015766;-65
2024/03/20 14:17:45;;;;;;;;;;;;;;;25.87;22.89;99285.38;68280;1283;1015632;-69
2024/03/20 14:20:47;;;;;;;;;;;;;;;25.71;22.75;99282.95;68278;1283;1016718;-69
2024/03/20 14:23:52;;;;;;;;;;;;;;;25.78;22.25;99286.98;68280;1283;1015301;-69
2024/03/20 14:26:55;;;;;;;;;;;;;;;25.29;22.87;99277.13;68280;1283;1015457;-69
2024/03/20 14:29:58;;;;;;;;;;;;;;;25.25;22.97;99274.95;68277;1283;1015652;-69
2024/03/20 14:33:00;;;;;;;;;;;;;;;25.21;22.66;99273.48;68271;1283;1016030;-69
2024/03/20 14:36:03;;;;;;;;;;;;;;;24.75;22.61;99273.53;68280;1283;1015320;-69
2024/03/20 14:39:10;;;;;;;;;;;;;;;24.19;23.35;99273.00;68275;1283;1015654;-69
2024/03/20 14:42:13;;;;;;;;;;;;;;;23.64;23.33;99275.04;68297;1283;1015247;-69
2024/03/20 14:45:16;;;;;;;;;;;;;;;23.22;23.90;99271.98;68284;1283;1015251;-69
2024/03/20 14:48:18;;;;;;;;;;;;;;;23.15;23.77;99269.91;68281;1283;1015961;-69
2024/03/20 14:51:21;;;;;;;;;;;;;;;23.34;24.55;99267.16;68280;1283;1015375;-68
2024/03/20 14:54:23;;;;;;;;;;;;;;;24.02;24.32;99263.82;68288;1283;1015612;-68
2024/03/20 14:57:28;;;;;;;;;;;;;;;24.51;23.72;99264.90;68281;1283;1014590;-68
2024/03/20 15:00:31;;;;;;;;;;;;;;;24.83;24.00;99264.73;68293;1283;1016256;-69
2024/03/20 15:03:33;;;;;;;;;;;;;;;25.00;23.88;99266.95;68287;1283;1015285;-69
2024/03/20 15:06:36;;;;;;;;;;;;;;;25.09;23.63;99264.27;68272;1283;1016576;-69
2024/03/20 15:09:38;;;;;;;;;;;;;;;25.28;23.64;99265.09;68279;1283;1016140;-69
2024/03/20 15:12:41;;;;;;;;;;;;;;;25.33;23.28;99261.97;68295;1283;1015566;-63
2024/03/20 15:15:44;;;;;;;;;;;;;;;25.24;23.17;99258.86;68271;1283;1015819;-69
2024/03/20 15:18:46;;;;;;;;;;;;;;;25.10;23.30;99262.73;68281;1283;1016234;-69
2024/03/20 15:21:49;;;;;;;;;;;;;;;25.00;23.12;99261.05;68267;1283;1016014;-69
2024/03/20 15:24:51;;;;;;;;;;;;;;;24.89;23.33;99262.18;68290;1283;1016273;-69
2024/03/20 15:27:54;;;;;;;;;;;;;;;24.63;23.57;99265.94;68280;1283;1014895;-69
2024/03/20 15:30:57;;;;;;;;;;;;;;;24.51;23.59;99265.00;68276;1283;1015756;-69